Time;durP1;ratioP1;P1;durP2;ratioP2;P2;SDS_P1;SDS_P2;PMS_P1;PMS_P2;Temp;Humidity;BMP_temperature;BMP_pressure;BME280_temperature;BME280_humidity;BME280_pressure;Samples;Min_cycle;Max_cycle;Signal;HPM_P1;HPM_P2
2021/04/08 00:01:36;;;;;;;0.20;0.20;;;;;;;;;;5040777;28;20195;-58
2021/04/08 00:04:03;;;;;;;0.87;0.43;;;;;;;;;;5043459;28;20275;-58
2021/04/08 00:06:30;;;;;;;2.67;1.07;;;;;;;;;;5050748;28;20236;-58
2021/04/08 00:08:56;;;;;;;0.20;0.20;;;;;;;;;;5047510;28;20195;-57
2021/04/08 00:11:23;;;;;;;0.00;0.00;;;;;;;;;;5044061;28;20195;-57
2021/04/08 00:13:51;;;;;;;0.47;0.20;;;;;;;;;;5042676;28;20191;-56
2021/04/08 00:16:18;;;;;;;0.47;0.47;;;;;;;;;;5041124;28;20184;-57
2021/04/08 00:18:44;;;;;;;0.00;0.00;;;;;;;;;;5036788;28;20202;-58
2021/04/08 00:21:11;;;;;;;0.00;0.00;;;;;;;;;;5043100;28;20295;-58
2021/04/08 00:23:38;;;;;;;0.00;0.00;;;;;;;;;;5041111;28;20306;-57
2021/04/08 00:26:04;;;;;;;1.23;1.03;;;;;;;;;;5039288;28;20227;-57
2021/04/08 00:28:31;;;;;;;0.00;0.00;;;;;;;;;;5033252;28;20597;-57
2021/04/08 00:30:58;;;;;;;2.73;0.43;;;;;;;;;;5023583;28;20207;-55
2021/04/08 00:33:24;;;;;;;0.10;0.10;;;;;;;;;;5038466;28;20209;-57
2021/04/08 00:35:51;;;;;;;0.00;0.00;;;;;;;;;;5038677;28;20215;-57
2021/04/08 00:38:18;;;;;;;0.00;0.00;;;;;;;;;;5038526;28;20187;-58
2021/04/08 00:40:44;;;;;;;0.40;0.40;;;;;;;;;;5039583;28;20198;-57
2021/04/08 00:43:11;;;;;;;0.00;0.00;;;;;;;;;;5037861;28;20894;-58
2021/04/08 00:45:38;;;;;;;1.17;0.90;;;;;;;;;;5038716;28;20201;-58
2021/04/08 00:48:05;;;;;;;0.00;0.00;;;;;;;;;;5037517;28;20175;-58
2021/04/08 00:50:33;;;;;;;0.00;0.00;;;;;;;;;;5037625;28;21023;-57
2021/04/08 00:53:02;;;;;;;0.70;0.47;;;;;;;;;;5045802;22;20236;-59
2021/04/08 00:55:30;;;;;;;0.10;0.00;;;;;;;;;;5028306;28;20215;-59
2021/04/08 00:57:56;;;;;;;0.00;0.00;;;;;;;;;;5016631;28;20215;-59
2021/04/08 01:00:25;;;;;;;0.10;0.10;;;;;;;;;;5018665;28;20837;-59
2021/04/08 01:02:51;;;;;;;0.00;0.00;;;;;;;;;;5034142;28;20194;-59
2021/04/08 01:05:18;;;;;;;0.00;0.00;;;;;;;;;;5019487;28;20215;-59
2021/04/08 01:07:45;;;;;;;5.63;1.23;;;;;;;;;;5029623;28;20215;-59
2021/04/08 01:10:13;;;;;;;0.60;0.40;;;;;;;;;;5030874;28;20278;-59
2021/04/08 01:12:41;;;;;;;0.00;0.00;;;;;;;;;;5027701;28;20202;-59
2021/04/08 01:15:08;;;;;;;0.00;0.00;;;;;;;;;;5036344;28;20229;-59
2021/04/08 01:17:48;;;;;;;0.00;0.00;;;;;;;;;;5036388;28;20188;-59
2021/04/08 01:20:33;;;;;;;0.00;0.00;;;;;;;;;;5030014;28;20792;-59
2021/04/08 01:23:04;;;;;;;0.53;0.50;;;;;;;;;;5028458;28;20250;-59
2021/04/08 01:25:37;;;;;;;0.20;0.20;;;;;;;;;;5032227;28;20297;-59
2021/04/08 01:28:03;;;;;;;0.40;0.40;;;;;;;;;;5030049;28;20195;-59
2021/04/08 01:31:00;;;;;;;0.00;0.00;;;;;;;;;;5031380;28;20207;-60
2021/04/08 01:33:32;;;;;;;0.00;0.00;;;;;;;;;;5013973;28;20661;-60
2021/04/08 01:36:03;;;;;;;0.00;0.00;;;;;;;;;;5028921;28;20195;-59
2021/04/08 01:38:34;;;;;;;0.47;0.47;;;;;;;;;;5016997;28;20187;-59
2021/04/08 01:41:01;;;;;;;0.00;0.00;;;;;;;;;;5018666;28;20242;-59
2021/04/08 01:43:31;;;;;;;0.10;0.10;;;;;;;;;;5025572;28;20234;-59
2021/04/08 01:45:59;;;;;;;0.00;0.00;;;;;;;;;;5035650;28;20229;-59
2021/04/08 01:48:26;;;;;;;1.00;0.37;;;;;;;;;;5029797;28;20194;-59
2021/04/08 01:50:57;;;;;;;0.00;0.00;;;;;;;;;;5034409;28;20201;-59
2021/04/08 01:53:23;;;;;;;0.00;0.00;;;;;;;;;;5034194;28;20545;-59
2021/04/08 01:55:53;;;;;;;0.07;0.07;;;;;;;;;;5030277;28;20189;-60
2021/04/08 01:58:20;;;;;;;0.00;0.00;;;;;;;;;;5027340;28;20445;-60
2021/04/08 02:00:47;;;;;;;0.00;0.00;;;;;;;;;;5028377;28;20966;-59
2021/04/08 02:03:17;;;;;;;0.00;0.00;;;;;;;;;;5020680;28;20287;-59
2021/04/08 02:05:44;;;;;;;0.00;0.00;;;;;;;;;;5032665;28;20273;-59
2021/04/08 02:08:14;;;;;;;10.80;0.63;;;;;;;;;;5036120;28;20191;-59
2021/04/08 02:10:41;;;;;;;0.10;0.10;;;;;;;;;;5018404;28;20202;-59
2021/04/08 02:13:10;;;;;;;1.60;1.10;;;;;;;;;;5034486;28;20522;-59
2021/04/08 02:15:38;;;;;;;0.00;0.00;;;;;;;;;;5033034;28;20338;-59
2021/04/08 02:18:05;;;;;;;0.00;0.00;;;;;;;;;;5032062;28;20210;-60
2021/04/08 02:20:32;;;;;;;0.03;0.03;;;;;;;;;;5019737;28;20205;-59
2021/04/08 02:23:00;;;;;;;0.00;0.00;;;;;;;;;;5018931;28;20190;-59
2021/04/08 02:25:29;;;;;;;0.00;0.00;;;;;;;;;;5029781;28;20298;-59
2021/04/08 02:27:56;;;;;;;0.00;0.00;;;;;;;;;;5032790;28;20704;-59
2021/04/08 02:30:25;;;;;;;0.00;0.00;;;;;;;;;;5027159;28;20233;-59
2021/04/08 02:32:54;;;;;;;4.10;0.53;;;;;;;;;;5034155;28;20192;-59
2021/04/08 02:35:21;;;;;;;0.00;0.00;;;;;;;;;;5030962;28;20202;-60
2021/04/08 02:37:49;;;;;;;0.00;0.00;;;;;;;;;;5035828;28;20191;-60
2021/04/08 02:40:17;;;;;;;0.10;0.10;;;;;;;;;;5035490;28;20206;-60
2021/04/08 02:42:46;;;;;;;0.00;0.00;;;;;;;;;;5035239;28;20202;-60
2021/04/08 02:45:14;;;;;;;0.00;0.00;;;;;;;;;;5033224;28;20215;-59
2021/04/08 02:47:41;;;;;;;0.00;0.00;;;;;;;;;;5029808;28;21627;-60
2021/04/08 02:50:10;;;;;;;2.00;0.37;;;;;;;;;;5028386;28;20188;-60
2021/04/08 02:52:48;;;;;;;2.03;0.63;;;;;;;;;;5015762;28;20226;-60
2021/04/08 02:55:24;;;;;;;0.00;0.00;;;;;;;;;;5032664;28;20268;-60
2021/04/08 02:57:55;;;;;;;0.20;0.20;;;;;;;;;;5031802;28;20498;-60
2021/04/08 03:00:24;;;;;;;0.00;0.00;;;;;;;;;;5030705;28;20245;-62
2021/04/08 03:02:53;;;;;;;0.20;0.20;;;;;;;;;;5030702;28;20230;-60
2021/04/08 03:05:21;;;;;;;0.10;0.10;;;;;;;;;;5026163;28;20215;-59
2021/04/08 03:07:49;;;;;;;0.30;0.30;;;;;;;;;;5022573;28;20187;-59
2021/04/08 03:10:24;;;;;;;0.33;0.33;;;;;;;;;;5024816;28;20278;-62
2021/04/08 03:12:51;;;;;;;0.00;0.00;;;;;;;;;;5029384;28;20346;-63
2021/04/08 03:15:29;;;;;;;0.00;0.00;;;;;;;;;;5039530;28;20211;-60
2021/04/08 03:17:57;;;;;;;0.00;0.00;;;;;;;;;;5038506;28;20203;-60
2021/04/08 03:20:43;;;;;;;0.07;0.07;;;;;;;;;;5035936;28;20228;-61
2021/04/08 03:23:12;;;;;;;0.00;0.00;;;;;;;;;;5032233;28;20626;-60
2021/04/08 03:25:39;;;;;;;0.00;0.00;;;;;;;;;;5032773;28;20195;-59
2021/04/08 03:28:06;;;;;;;0.17;0.17;;;;;;;;;;5034715;28;20242;-61
2021/04/08 03:30:34;;;;;;;15.93;1.60;;;;;;;;;;5031733;28;20188;-62
2021/04/08 03:33:01;;;;;;;1.07;0.73;;;;;;;;;;5037773;28;20188;-60
2021/04/08 03:35:28;;;;;;;0.00;0.00;;;;;;;;;;5031455;28;20822;-60
2021/04/08 03:37:55;;;;;;;0.00;0.00;;;;;;;;;;5034174;28;20576;-59
2021/04/08 03:40:22;;;;;;;0.00;0.00;;;;;;;;;;5037800;28;20712;-60
2021/04/08 03:42:50;;;;;;;0.37;0.37;;;;;;;;;;5037300;28;20250;-61
2021/04/08 03:45:17;;;;;;;0.30;0.30;;;;;;;;;;5037955;28;20211;-61
2021/04/08 03:47:44;;;;;;;0.00;0.00;;;;;;;;;;5033602;28;20202;-61
2021/04/08 03:50:12;;;;;;;2.53;0.73;;;;;;;;;;5035258;28;20213;-62
2021/04/08 03:52:39;;;;;;;0.00;0.00;;;;;;;;;;5035513;28;20277;-61
2021/04/08 03:55:07;;;;;;;0.00;0.00;;;;;;;;;;5036433;28;20687;-61
2021/04/08 03:57:35;;;;;;;0.00;0.00;;;;;;;;;;5031938;28;20198;-61
2021/04/08 04:00:05;;;;;;;0.40;0.33;;;;;;;;;;5038647;28;20372;-61
2021/04/08 04:02:33;;;;;;;0.00;0.00;;;;;;;;;;5038297;28;20436;-61
2021/04/08 13:49:03;;;;;;;0.00;0.00;;;;;;;;;;5057039;28;21095;-63
2021/04/08 13:51:30;;;;;;;0.97;0.97;;;;;;;;;;5041476;28;20249;-63
2021/04/08 13:53:56;;;;;;;1.17;1.13;;;;;;;;;;5036598;28;20268;-63
2021/04/08 13:56:23;;;;;;;0.00;0.00;;;;;;;;;;5037021;28;20173;-63
2021/04/08 13:58:49;;;;;;;0.10;0.10;;;;;;;;;;5037625;28;20333;-63
2021/04/08 14:01:18;;;;;;;1.00;0.63;;;;;;;;;;5025685;28;20189;-63
2021/04/08 14:03:49;;;;;;;0.00;0.00;;;;;;;;;;5035790;28;20571;-63
2021/04/08 14:06:16;;;;;;;0.23;0.23;;;;;;;;;;5038094;28;20188;-63
2021/04/08 14:08:43;;;;;;;0.07;0.07;;;;;;;;;;5019985;28;20219;-63
2021/04/08 14:11:13;;;;;;;0.40;0.10;;;;;;;;;;5035355;28;20231;-63
2021/04/08 14:13:39;;;;;;;0.63;0.37;;;;;;;;;;5031283;28;20188;-63
2021/04/08 14:16:06;;;;;;;0.03;0.03;;;;;;;;;;5037869;28;20195;-63
2021/04/08 14:18:41;;;;;;;4.13;0.73;;;;;;;;;;5024597;28;20212;-63
2021/04/08 14:21:07;;;;;;;0.00;0.00;;;;;;;;;;5028082;28;20183;-63
2021/04/08 14:23:34;;;;;;;1.43;0.80;;;;;;;;;;5042831;28;20184;-63
2021/04/08 14:26:00;;;;;;;0.10;0.10;;;;;;;;;;5032738;28;20185;-63
2021/04/08 14:28:27;;;;;;;0.07;0.07;;;;;;;;;;5030770;28;20196;-60
2021/04/08 14:30:54;;;;;;;0.27;0.27;;;;;;;;;;5034093;28;20195;-61
2021/04/08 14:33:20;;;;;;;0.10;0.10;;;;;;;;;;5021714;28;20177;-63
2021/04/08 14:35:49;;;;;;;0.00;0.00;;;;;;;;;;5018603;28;20275;-63
2021/04/08 14:38:16;;;;;;;0.30;0.30;;;;;;;;;;5031417;28;20192;-63
2021/04/08 14:40:43;;;;;;;0.73;0.23;;;;;;;;;;5028341;28;20188;-63
2021/04/08 14:43:10;;;;;;;0.63;0.50;;;;;;;;;;5024366;28;20288;-63
2021/04/08 14:45:37;;;;;;;5.03;1.27;;;;;;;;;;5038887;28;20187;-63
2021/04/08 14:48:04;;;;;;;3.90;0.50;;;;;;;;;;5026437;28;20232;-63
2021/04/08 14:50:30;;;;;;;0.77;0.20;;;;;;;;;;5019881;28;20849;-62
2021/04/08 14:52:57;;;;;;;1.50;0.40;;;;;;;;;;5033475;28;20247;-63
2021/04/08 14:55:24;;;;;;;0.93;0.60;;;;;;;;;;5026506;28;20335;-63
2021/04/08 14:57:51;;;;;;;0.70;0.70;;;;;;;;;;5031201;28;20228;-62
2021/04/08 15:00:18;;;;;;;0.50;0.40;;;;;;;;;;5018120;28;20181;-62
2021/04/08 15:02:46;;;;;;;0.20;0.10;;;;;;;;;;5019972;28;20904;-62
2021/04/08 15:05:14;;;;;;;0.43;0.40;;;;;;;;;;5015358;28;20189;-62
2021/04/08 15:07:40;;;;;;;0.00;0.00;;;;;;;;;;5007146;28;20207;-62
2021/04/08 15:10:08;;;;;;;1.60;1.07;;;;;;;;;;5010519;28;20469;-62
2021/04/08 15:12:35;;;;;;;5.00;1.03;;;;;;;;;;5009462;28;20194;-62
2021/04/08 15:15:01;;;;;;;0.07;0.07;;;;;;;;;;5017918;28;20178;-63
2021/04/08 15:17:29;;;;;;;2.10;0.30;;;;;;;;;;5008973;28;20189;-62
2021/04/08 15:19:57;;;;;;;0.93;0.30;;;;;;;;;;5010228;28;21018;-62
2021/04/08 15:22:24;;;;;;;0.20;0.20;;;;;;;;;;5011025;28;20220;-62
2021/04/08 15:24:51;;;;;;;1.27;1.10;;;;;;;;;;5021358;28;20183;-63
2021/04/08 15:27:18;;;;;;;0.10;0.10;;;;;;;;;;5022347;28;20671;-62
2021/04/08 15:29:45;;;;;;;2.17;1.13;;;;;;;;;;5007946;28;20177;-63
2021/04/08 15:32:12;;;;;;;2.67;0.63;;;;;;;;;;5014133;28;20182;-62
2021/04/08 15:34:38;;;;;;;3.40;1.27;;;;;;;;;;5017432;28;20276;-62
2021/04/08 15:37:05;;;;;;;0.17;0.17;;;;;;;;;;5004148;28;20194;-62
2021/04/08 15:39:32;;;;;;;0.30;0.30;;;;;;;;;;5006425;28;20405;-62
2021/04/08 15:41:59;;;;;;;0.83;0.40;;;;;;;;;;5016757;28;20185;-62
2021/04/08 15:44:25;;;;;;;1.37;1.03;;;;;;;;;;5013969;28;20187;-62
2021/04/08 15:46:52;;;;;;;0.13;0.13;;;;;;;;;;5010184;28;20243;-62
2021/04/08 15:49:18;;;;;;;0.27;0.13;;;;;;;;;;5004947;28;20249;-63
2021/04/08 15:51:45;;;;;;;4.33;1.03;;;;;;;;;;5009444;28;20200;-63
2021/04/08 15:54:11;;;;;;;0.97;0.47;;;;;;;;;;5014018;28;20180;-62
2021/04/08 15:56:38;;;;;;;0.30;0.30;;;;;;;;;;5023570;28;20179;-66
2021/04/08 15:59:04;;;;;;;0.13;0.13;;;;;;;;;;5018145;28;20719;-64
2021/04/08 16:01:31;;;;;;;0.53;0.40;;;;;;;;;;5010850;28;20189;-60
2021/04/08 16:04:00;;;;;;;0.33;0.33;;;;;;;;;;5006501;28;20193;-60
2021/04/08 16:06:27;;;;;;;1.30;0.67;;;;;;;;;;5022850;28;20354;-60
2021/04/08 16:08:56;;;;;;;0.07;0.00;;;;;;;;;;5020040;28;20228;-60
2021/04/08 16:11:23;;;;;;;5.30;0.73;;;;;;;;;;5023278;28;20697;-60
2021/04/08 16:13:49;;;;;;;0.67;0.57;;;;;;;;;;5013543;28;20189;-60
2021/04/08 16:16:16;;;;;;;0.20;0.20;;;;;;;;;;5021461;28;20188;-60
2021/04/08 16:18:43;;;;;;;0.90;0.33;;;;;;;;;;5022668;28;20189;-60
2021/04/08 16:21:09;;;;;;;3.50;1.37;;;;;;;;;;5021760;28;20197;-59
2021/04/08 16:23:36;;;;;;;0.30;0.30;;;;;;;;;;5011901;28;20296;-60
2021/04/08 16:26:03;;;;;;;1.83;0.50;;;;;;;;;;5006915;28;20194;-59
2021/04/08 16:28:30;;;;;;;0.00;0.00;;;;;;;;;;5023103;28;20300;-60
2021/04/08 16:30:57;;;;;;;6.03;1.07;;;;;;;;;;5025203;28;20235;-59
2021/04/08 16:33:23;;;;;;;0.40;0.20;;;;;;;;;;5025886;28;20577;-60
2021/04/08 16:35:50;;;;;;;0.00;0.00;;;;;;;;;;5031469;28;20194;-64
2021/04/08 16:38:17;;;;;;;4.43;0.20;;;;;;;;;;5023354;28;21068;-63
2021/04/08 16:40:45;;;;;;;0.10;0.10;;;;;;;;;;5026492;28;20549;-63
2021/04/08 16:43:13;;;;;;;0.10;0.10;;;;;;;;;;5022376;28;20186;-63
2021/04/08 16:45:40;;;;;;;2.13;0.40;;;;;;;;;;5006662;28;20250;-63
2021/04/08 16:48:07;;;;;;;1.23;1.03;;;;;;;;;;5021718;28;20312;-63
2021/04/08 16:50:34;;;;;;;7.23;1.93;;;;;;;;;;5009246;28;20193;-63
2021/04/08 16:53:01;;;;;;;5.97;1.97;;;;;;;;;;5020133;28;20210;-63
2021/04/08 16:55:28;;;;;;;0.83;0.83;;;;;;;;;;5022293;28;20719;-64
2021/04/08 16:57:56;;;;;;;0.00;0.00;;;;;;;;;;5011696;28;20934;-64
2021/04/08 17:00:23;;;;;;;0.00;0.00;;;;;;;;;;5022763;28;20200;-63
2021/04/08 17:02:50;;;;;;;0.30;0.30;;;;;;;;;;5018033;28;20193;-63
2021/04/08 17:05:17;;;;;;;2.43;0.47;;;;;;;;;;5023701;28;20195;-63
2021/04/08 17:07:43;;;;;;;0.03;0.03;;;;;;;;;;5022292;28;20755;-63
2021/04/08 17:13:13;;;;;;;51.77;18.13;;;;;;;;;;5009863;28;20204;-64
2021/04/08 17:15:40;;;;;;;0.50;0.30;;;;;;;;;;5018054;28;20247;-64
2021/04/08 17:18:06;;;;;;;0.40;0.40;;;;;;;;;;5019372;28;20977;-64
2021/04/08 17:20:33;;;;;;;2.20;1.20;;;;;;;;;;5019351;28;20195;-63
2021/04/08 17:22:59;;;;;;;0.00;0.00;;;;;;;;;;5019067;28;20282;-63
2021/04/08 17:25:26;;;;;;;9.03;3.23;;;;;;;;;;5025753;28;20257;-65
2021/04/08 17:27:53;;;;;;;0.47;0.30;;;;;;;;;;5012769;28;20674;-60
2021/04/08 17:30:21;;;;;;;0.87;0.37;;;;;;;;;;5010231;28;20165;-64
2021/04/08 17:32:48;;;;;;;6.43;0.27;;;;;;;;;;5014872;28;20819;-63
2021/04/08 17:35:16;;;;;;;11.43;2.87;;;;;;;;;;5002570;28;20188;-64
2021/04/08 17:37:42;;;;;;;4.40;1.60;;;;;;;;;;5010077;28;20194;-63
2021/04/08 17:40:09;;;;;;;0.93;0.73;;;;;;;;;;5019710;28;20667;-63
2021/04/08 17:42:38;;;;;;;1.20;0.93;;;;;;;;;;5014074;28;20185;-64
2021/04/08 17:45:05;;;;;;;16.97;4.97;;;;;;;;;;5011268;28;20189;-63
2021/04/08 17:47:32;;;;;;;1.70;0.77;;;;;;;;;;5020925;28;20246;-63
2021/04/08 17:50:00;;;;;;;0.10;0.10;;;;;;;;;;5022985;28;20188;-63
2021/04/08 17:52:26;;;;;;;0.60;0.47;;;;;;;;;;5009322;28;20178;-63
2021/04/08 17:54:53;;;;;;;0.17;0.13;;;;;;;;;;5017797;28;20215;-64
2021/04/08 17:57:19;;;;;;;0.00;0.00;;;;;;;;;;5014100;28;20193;-63
2021/04/08 17:59:46;;;;;;;1.77;0.77;;;;;;;;;;5013863;28;20192;-63
2021/04/08 18:02:12;;;;;;;1.37;1.33;;;;;;;;;;5019771;28;20293;-64
2021/04/08 18:04:39;;;;;;;0.37;0.37;;;;;;;;;;5011933;28;20354;-63
2021/04/08 18:07:05;;;;;;;0.43;0.40;;;;;;;;;;5008772;28;20200;-63
2021/04/08 18:09:32;;;;;;;0.67;0.57;;;;;;;;;;5013417;28;20206;-64
2021/04/08 18:11:58;;;;;;;1.60;0.77;;;;;;;;;;5016953;28;20188;-63
2021/04/08 18:14:25;;;;;;;0.77;0.43;;;;;;;;;;5017895;28;20199;-63
2021/04/08 18:16:52;;;;;;;0.63;0.33;;;;;;;;;;5023396;28;20188;-63
2021/04/08 18:19:19;;;;;;;0.10;0.00;;;;;;;;;;5015051;28;20298;-62
2021/04/08 18:21:46;;;;;;;0.93;0.73;;;;;;;;;;5021783;28;20192;-63
2021/04/08 18:24:12;;;;;;;0.20;0.20;;;;;;;;;;5021077;28;20199;-63
2021/04/08 18:26:39;;;;;;;3.67;0.97;;;;;;;;;;5019167;28;20193;-63
2021/04/08 18:29:05;;;;;;;0.77;0.20;;;;;;;;;;5016338;28;20271;-63
2021/04/08 18:31:33;;;;;;;1.70;1.00;;;;;;;;;;5017896;28;20193;-63
2021/04/08 18:34:00;;;;;;;1.27;1.17;;;;;;;;;;5020189;28;20181;-63
2021/04/08 18:36:26;;;;;;;0.00;0.00;;;;;;;;;;5017165;28;20246;-63
2021/04/08 18:38:53;;;;;;;5.70;0.40;;;;;;;;;;5021776;28;20311;-63
2021/04/08 18:41:20;;;;;;;4.03;3.63;;;;;;;;;;5020439;28;20185;-63
2021/04/08 18:51:47;;;;;;;0.40;0.40;;;;;;;;;;3173007;23;21042;-64
2021/04/08 18:54:14;;;;;;;0.00;0.00;;;;;;;;;;4992263;28;20178;-65
2021/04/08 18:56:42;;;;;;;0.50;0.50;;;;;;;;;;4987701;28;20192;-64
2021/04/08 18:59:09;;;;;;;1.00;0.70;;;;;;;;;;4996958;28;20200;-65
2021/04/08 19:01:37;;;;;;;4.43;0.47;;;;;;;;;;4996145;28;20177;-64
2021/04/08 19:04:05;;;;;;;0.20;0.13;;;;;;;;;;4999103;28;20186;-64
2021/04/08 19:06:34;;;;;;;0.63;0.40;;;;;;;;;;4986093;28;20240;-64
2021/04/08 19:09:01;;;;;;;0.27;0.10;;;;;;;;;;4990732;28;20178;-64
2021/04/08 19:11:27;;;;;;;1.37;0.60;;;;;;;;;;4991315;28;20184;-64
2021/04/08 19:13:54;;;;;;;2.73;2.53;;;;;;;;;;4990080;28;20200;-64
2021/04/08 19:16:21;;;;;;;0.00;0.00;;;;;;;;;;4998210;28;20185;-64
2021/04/08 19:18:47;;;;;;;0.60;0.43;;;;;;;;;;4996775;28;20618;-64
2021/04/08 19:21:14;;;;;;;0.43;0.20;;;;;;;;;;5000191;28;20187;-64
2021/04/08 19:23:40;;;;;;;0.50;0.13;;;;;;;;;;4996267;28;20295;-65
2021/04/08 19:26:07;;;;;;;2.43;0.53;;;;;;;;;;4986200;28;20195;-64
2021/04/08 19:28:33;;;;;;;0.50;0.50;;;;;;;;;;4993596;28;20192;-64
2021/04/08 19:31:00;;;;;;;0.00;0.00;;;;;;;;;;4990707;28;20707;-65
2021/04/08 19:33:26;;;;;;;0.40;0.30;;;;;;;;;;4989381;28;20232;-64
2021/04/08 19:35:53;;;;;;;1.50;1.50;;;;;;;;;;4990559;28;20295;-64
2021/04/08 19:38:20;;;;;;;0.10;0.10;;;;;;;;;;4990973;28;20201;-65
2021/04/08 19:40:47;;;;;;;0.97;0.23;;;;;;;;;;4988737;28;20221;-65
2021/04/08 19:43:14;;;;;;;0.13;0.13;;;;;;;;;;4991767;28;20723;-65
2021/04/08 19:45:42;;;;;;;0.80;0.40;;;;;;;;;;4984443;28;20178;-65
2021/04/08 19:48:08;;;;;;;0.10;0.10;;;;;;;;;;4988468;28;20205;-65
2021/04/08 19:50:35;;;;;;;0.00;0.00;;;;;;;;;;4984949;28;20576;-65
2021/04/08 19:53:02;;;;;;;0.20;0.20;;;;;;;;;;4995425;28;20193;-65
2021/04/08 19:55:29;;;;;;;0.00;0.00;;;;;;;;;;4991083;28;20190;-65
2021/04/08 19:57:57;;;;;;;0.60;0.53;;;;;;;;;;4994924;28;20197;-65
2021/04/08 20:00:24;;;;;;;3.40;1.83;;;;;;;;;;4998454;28;20956;-65
2021/04/08 20:02:50;;;;;;;0.00;0.00;;;;;;;;;;4992219;28;20174;-66
2021/04/08 20:05:17;;;;;;;2.53;0.70;;;;;;;;;;4991995;28;20710;-66
2021/04/08 20:07:45;;;;;;;0.00;0.00;;;;;;;;;;4985550;28;20556;-65
2021/04/08 20:10:12;;;;;;;0.30;0.30;;;;;;;;;;4985197;28;20173;-65
2021/04/08 20:12:38;;;;;;;0.00;0.00;;;;;;;;;;4995474;28;20842;-65
2021/04/08 20:15:05;;;;;;;0.77;0.33;;;;;;;;;;4985625;28;20189;-65
2021/04/08 20:17:32;;;;;;;1.57;0.47;;;;;;;;;;4985458;28;20208;-65
2021/04/08 20:19:58;;;;;;;0.77;0.77;;;;;;;;;;4991602;28;20673;-65
2021/04/08 20:22:25;;;;;;;1.40;0.63;;;;;;;;;;4995099;28;20298;-64
2021/04/08 20:24:51;;;;;;;0.03;0.03;;;;;;;;;;4997892;28;20189;-65
2021/04/08 20:27:18;;;;;;;0.00;0.00;;;;;;;;;;4995579;28;20196;-65
2021/04/08 20:29:44;;;;;;;0.37;0.37;;;;;;;;;;4977836;28;20209;-65
2021/04/08 20:32:12;;;;;;;0.20;0.20;;;;;;;;;;4990089;28;20208;-65
2021/04/08 20:34:39;;;;;;;0.20;0.20;;;;;;;;;;4996889;28;20181;-65
2021/04/08 20:37:05;;;;;;;1.30;0.23;;;;;;;;;;4995672;28;20188;-65
2021/04/08 20:39:32;;;;;;;0.00;0.00;;;;;;;;;;4989587;28;20197;-65
2021/04/08 20:41:59;;;;;;;0.00;0.00;;;;;;;;;;4999317;28;20188;-65
2021/04/08 20:44:26;;;;;;;0.10;0.10;;;;;;;;;;5001465;28;20219;-65
2021/04/08 20:46:54;;;;;;;0.00;0.00;;;;;;;;;;5000506;28;20189;-65
2021/04/08 20:49:27;;;;;;;1.13;1.03;;;;;;;;;;4990533;28;20764;-65
2021/04/08 20:51:54;;;;;;;0.47;0.40;;;;;;;;;;4991426;28;20328;-65
2021/04/08 20:54:21;;;;;;;0.10;0.10;;;;;;;;;;4987958;28;20186;-65
2021/04/08 20:56:48;;;;;;;0.43;0.43;;;;;;;;;;4987175;28;20227;-65
2021/04/08 20:59:15;;;;;;;0.37;0.30;;;;;;;;;;4985772;28;20297;-65
2021/04/08 21:01:41;;;;;;;0.00;0.00;;;;;;;;;;4985557;28;20185;-65
2021/04/08 21:04:08;;;;;;;0.00;0.00;;;;;;;;;;4987407;28;20178;-65
2021/04/08 21:06:34;;;;;;;0.00;0.00;;;;;;;;;;4991127;28;20825;-65
2021/04/08 21:09:01;;;;;;;0.00;0.00;;;;;;;;;;4986560;28;20189;-65
2021/04/08 21:11:27;;;;;;;0.63;0.30;;;;;;;;;;4991248;28;20205;-66
2021/04/08 21:13:54;;;;;;;0.00;0.00;;;;;;;;;;4993143;28;20297;-65
2021/04/08 21:16:21;;;;;;;0.03;0.03;;;;;;;;;;4990164;28;21020;-65
2021/04/08 21:18:48;;;;;;;0.00;0.00;;;;;;;;;;4981399;28;20226;-65
2021/04/08 21:21:14;;;;;;;0.30;0.30;;;;;;;;;;4985916;28;20182;-65
2021/04/08 21:23:41;;;;;;;0.23;0.20;;;;;;;;;;4991010;28;20219;-65
2021/04/08 21:26:08;;;;;;;0.20;0.20;;;;;;;;;;4987558;28;20189;-65
2021/04/08 21:28:34;;;;;;;0.00;0.00;;;;;;;;;;4990178;28;20188;-65
2021/04/08 21:31:01;;;;;;;0.53;0.53;;;;;;;;;;4982903;28;20197;-65
2021/04/08 21:33:28;;;;;;;0.00;0.00;;;;;;;;;;4996766;28;20307;-65
2021/04/08 21:35:55;;;;;;;0.00;0.00;;;;;;;;;;4989279;28;20189;-66
2021/04/08 21:38:21;;;;;;;0.00;0.00;;;;;;;;;;4986911;28;20204;-66
2021/04/08 21:40:55;;;;;;;0.00;0.00;;;;;;;;;;4983582;28;21079;-65
2021/04/08 21:43:22;;;;;;;5.50;5.20;;;;;;;;;;4987903;28;20258;-65
2021/04/08 21:45:49;;;;;;;0.00;0.00;;;;;;;;;;4988098;28;20187;-66
2021/04/08 21:48:16;;;;;;;0.63;0.63;;;;;;;;;;4986625;28;20192;-65
2021/04/08 21:50:42;;;;;;;0.20;0.17;;;;;;;;;;4985966;28;20200;-66
2021/04/08 21:53:09;;;;;;;0.00;0.00;;;;;;;;;;4992620;28;20251;-67
2021/04/08 21:55:35;;;;;;;0.00;0.00;;;;;;;;;;4984820;28;20186;-66
2021/04/08 21:58:03;;;;;;;0.00;0.00;;;;;;;;;;4991948;28;20197;-66
2021/04/08 22:00:33;;;;;;;2.07;0.53;;;;;;;;;;4986776;28;20251;-66
2021/04/08 22:03:01;;;;;;;0.00;0.00;;;;;;;;;;4991177;28;20169;-66
2021/04/08 22:05:28;;;;;;;0.00;0.00;;;;;;;;;;4986537;28;20181;-66
2021/04/08 22:07:55;;;;;;;0.00;0.00;;;;;;;;;;4987435;28;20178;-66
2021/04/08 22:10:22;;;;;;;1.60;0.40;;;;;;;;;;4986628;28;21364;-66
2021/04/08 22:12:49;;;;;;;0.10;0.10;;;;;;;;;;4985715;28;20258;-66
2021/04/08 22:15:16;;;;;;;0.33;0.33;;;;;;;;;;4997275;28;20193;-66
2021/04/08 22:17:43;;;;;;;0.30;0.10;;;;;;;;;;4982516;28;20270;-66
2021/04/08 22:20:11;;;;;;;0.00;0.00;;;;;;;;;;4992367;28;20567;-66
2021/04/08 22:22:37;;;;;;;0.00;0.00;;;;;;;;;;5001293;28;20192;-66
2021/04/08 22:25:05;;;;;;;0.30;0.30;;;;;;;;;;4989947;28;20743;-67
2021/04/08 22:27:32;;;;;;;0.00;0.00;;;;;;;;;;4990969;28;20192;-66
2021/04/08 22:30:00;;;;;;;0.63;0.53;;;;;;;;;;4999397;28;21043;-65
2021/04/08 22:32:27;;;;;;;0.20;0.13;;;;;;;;;;4995207;28;20204;-66
2021/04/08 22:34:53;;;;;;;0.67;0.23;;;;;;;;;;4993392;28;20185;-66
2021/04/08 22:37:20;;;;;;;0.17;0.17;;;;;;;;;;4989072;28;20661;-67
2021/04/08 22:39:47;;;;;;;0.00;0.00;;;;;;;;;;4994757;28;20671;-66
2021/04/08 22:42:13;;;;;;;0.00;0.00;;;;;;;;;;4982182;28;20589;-67
2021/04/08 22:44:40;;;;;;;0.30;0.30;;;;;;;;;;4983044;28;20200;-66
2021/04/08 22:47:07;;;;;;;0.10;0.10;;;;;;;;;;4977728;28;20189;-67
2021/04/08 22:49:33;;;;;;;0.00;0.00;;;;;;;;;;4984707;28;20266;-66
2021/04/08 22:52:00;;;;;;;1.60;0.60;;;;;;;;;;4992528;28;20235;-66
2021/04/08 22:54:26;;;;;;;3.17;1.13;;;;;;;;;;4989261;28;20729;-64
2021/04/08 22:56:54;;;;;;;0.00;0.00;;;;;;;;;;4987779;28;20203;-62
2021/04/08 22:59:22;;;;;;;1.67;0.67;;;;;;;;;;4991579;28;20217;-65
2021/04/08 23:01:51;;;;;;;0.40;0.10;;;;;;;;;;4994423;28;20214;-66
2021/04/08 23:04:18;;;;;;;0.30;0.30;;;;;;;;;;4995431;28;20215;-66
2021/04/08 23:06:44;;;;;;;1.43;0.20;;;;;;;;;;4992640;28;21715;-63
2021/04/08 23:09:13;;;;;;;0.37;0.37;;;;;;;;;;4996925;28;20702;-63
2021/04/08 23:11:40;;;;;;;0.10;0.10;;;;;;;;;;4995532;28;20239;-65
2021/04/08 23:14:08;;;;;;;0.03;0.03;;;;;;;;;;4995921;28;20256;-65
2021/04/08 23:16:36;;;;;;;1.63;0.23;;;;;;;;;;4992469;28;20193;-65
2021/04/08 23:19:02;;;;;;;0.00;0.00;;;;;;;;;;4993608;28;20215;-65
2021/04/08 23:21:29;;;;;;;22.07;1.63;;;;;;;;;;4998215;28;20180;-66
2021/04/08 23:23:56;;;;;;;0.00;0.00;;;;;;;;;;4992119;28;20267;-65
2021/04/08 23:26:23;;;;;;;2.27;0.67;;;;;;;;;;4992625;28;20211;-65
2021/04/08 23:28:50;;;;;;;0.23;0.23;;;;;;;;;;4992561;28;20841;-65
2021/04/08 23:31:16;;;;;;;1.33;1.17;;;;;;;;;;4994651;28;20303;-66
2021/04/08 23:33:43;;;;;;;1.80;0.83;;;;;;;;;;4990494;28;20188;-66
2021/04/08 23:36:10;;;;;;;2.53;2.33;;;;;;;;;;4991511;28;20179;-66
2021/04/08 23:38:36;;;;;;;0.00;0.00;;;;;;;;;;4998283;28;20946;-67
2021/04/08 23:41:03;;;;;;;0.70;0.40;;;;;;;;;;4996106;28;20295;-67
2021/04/08 23:43:30;;;;;;;3.50;0.40;;;;;;;;;;4993534;28;20522;-66
2021/04/08 23:45:58;;;;;;;0.00;0.00;;;;;;;;;;4991554;28;20287;-66
2021/04/08 23:48:24;;;;;;;0.53;0.53;;;;;;;;;;4990070;28;20616;-66
2021/04/08 23:50:52;;;;;;;0.00;0.00;;;;;;;;;;4995766;28;20219;-66
2021/04/08 23:53:18;;;;;;;0.30;0.30;;;;;;;;;;4997745;28;20190;-63
2021/04/08 23:55:45;;;;;;;0.57;0.57;;;;;;;;;;4995271;28;20688;-65
2021/04/08 23:58:12;;;;;;;0.00;0.00;;;;;;;;;;5000794;28;20228;-66
